sensor_id;sensor_type;location;lat;lon;timestamp;P1;durP1;ratioP1;P2;durP2;ratioP2
40052;SDS011;25758;48.200;16.338;2022-10-31T00:00:56;17.00;;;11.27;;
40052;SDS011;25758;48.200;16.338;2022-10-31T00:03:22;16.63;;;10.50;;
40052;SDS011;25758;48.200;16.338;2022-10-31T00:05:49;16.25;;;10.68;;
40052;SDS011;25758;48.200;16.338;2022-10-31T00:08:15;18.02;;;11.30;;
40052;SDS011;25758;48.200;16.338;2022-10-31T00:10:42;16.15;;;10.38;;
40052;SDS011;25758;48.200;16.338;2022-10-31T00:13:08;14.90;;;10.10;;
40052;SDS011;25758;48.200;16.338;2022-10-31T00:15:36;14.38;;;8.80;;
40052;SDS011;25758;48.200;16.338;2022-10-31T00:18:03;14.07;;;9.57;;
40052;SDS011;25758;48.200;16.338;2022-10-31T00:20:30;16.42;;;9.55;;
40052;SDS011;25758;48.200;16.338;2022-10-31T00:22:57;14.60;;;9.13;;
40052;SDS011;25758;48.200;16.338;2022-10-31T00:25:24;13.68;;;9.73;;
40052;SDS011;25758;48.200;16.338;2022-10-31T00:27:50;12.00;;;8.38;;
40052;SDS011;25758;48.200;16.338;2022-10-31T00:30:15;13.75;;;8.95;;
40052;SDS011;25758;48.200;16.338;2022-10-31T00:32:41;11.68;;;8.02;;
40052;SDS011;25758;48.200;16.338;2022-10-31T00:35:06;11.95;;;8.13;;
40052;SDS011;25758;48.200;16.338;2022-10-31T00:37:32;12.38;;;8.63;;
40052;SDS011;25758;48.200;16.338;2022-10-31T00:39:58;13.27;;;8.40;;
40052;SDS011;25758;48.200;16.338;2022-10-31T00:42:24;10.98;;;8.30;;
40052;SDS011;25758;48.200;16.338;2022-10-31T00:44:49;14.90;;;8.85;;
40052;SDS011;25758;48.200;16.338;2022-10-31T00:47:15;13.68;;;8.95;;
40052;SDS011;25758;48.200;16.338;2022-10-31T00:49:40;10.65;;;7.55;;
40052;SDS011;25758;48.200;16.338;2022-10-31T00:52:06;11.77;;;8.65;;
40052;SDS011;25758;48.200;16.338;2022-10-31T00:54:32;11.80;;;7.93;;
40052;SDS011;25758;48.200;16.338;2022-10-31T00:56:58;11.93;;;8.23;;
40052;SDS011;25758;48.200;16.338;2022-10-31T00:59:23;11.63;;;8.23;;
40052;SDS011;25758;48.200;16.338;2022-10-31T01:01:49;12.18;;;8.25;;
40052;SDS011;25758;48.200;16.338;2022-10-31T01:04:15;11.73;;;7.78;;
40052;SDS011;25758;48.200;16.338;2022-10-31T01:06:40;12.13;;;8.25;;
40052;SDS011;25758;48.200;16.338;2022-10-31T01:09:06;12.40;;;7.38;;
40052;SDS011;25758;48.200;16.338;2022-10-31T01:11:32;8.98;;;6.75;;
40052;SDS011;25758;48.200;16.338;2022-10-31T01:13:57;8.00;;;6.05;;
40052;SDS011;25758;48.200;16.338;2022-10-31T01:16:24;9.82;;;7.43;;
40052;SDS011;25758;48.200;16.338;2022-10-31T01:18:51;8.85;;;6.93;;
40052;SDS011;25758;48.200;16.338;2022-10-31T01:21:22;9.80;;;7.13;;
40052;SDS011;25758;48.200;16.338;2022-10-31T01:23:50;9.70;;;6.78;;
40052;SDS011;25758;48.200;16.338;2022-10-31T01:26:20;9.90;;;6.72;;
40052;SDS011;25758;48.200;16.338;2022-10-31T01:28:48;9.32;;;6.75;;
40052;SDS011;25758;48.200;16.338;2022-10-31T01:31:25;8.07;;;6.28;;
40052;SDS011;25758;48.200;16.338;2022-10-31T01:33:53;11.18;;;7.13;;
40052;SDS011;25758;48.200;16.338;2022-10-31T01:36:24;11.23;;;6.70;;
40052;SDS011;25758;48.200;16.338;2022-10-31T01:38:52;10.20;;;7.45;;
40052;SDS011;25758;48.200;16.338;2022-10-31T01:41:20;12.60;;;6.53;;
40052;SDS011;25758;48.200;16.338;2022-10-31T01:43:58;9.00;;;7.18;;
40052;SDS011;25758;48.200;16.338;2022-10-31T01:46:26;9.77;;;6.13;;
40052;SDS011;25758;48.200;16.338;2022-10-31T01:48:59;10.40;;;6.28;;
40052;SDS011;25758;48.200;16.338;2022-10-31T01:51:28;11.98;;;7.20;;
40052;SDS011;25758;48.200;16.338;2022-10-31T01:53:58;9.52;;;7.07;;
40052;SDS011;25758;48.200;16.338;2022-10-31T01:56:27;9.88;;;6.88;;
40052;SDS011;25758;48.200;16.338;2022-10-31T01:58:53;10.30;;;7.20;;
40052;SDS011;25758;48.200;16.338;2022-10-31T02:01:22;11.75;;;7.38;;
40052;SDS011;25758;48.200;16.338;2022-10-31T02:03:47;9.55;;;6.80;;
40052;SDS011;25758;48.200;16.338;2022-10-31T02:06:18;9.75;;;6.53;;
40052;SDS011;25758;48.200;16.338;2022-10-31T02:08:54;9.25;;;6.68;;
40052;SDS011;25758;48.200;16.338;2022-10-31T02:11:22;14.25;;;8.25;;
40052;SDS011;25758;48.200;16.338;2022-10-31T02:13:48;10.07;;;7.10;;
40052;SDS011;25758;48.200;16.338;2022-10-31T02:16:13;10.65;;;7.35;;
40052;SDS011;25758;48.200;16.338;2022-10-31T02:18:39;10.98;;;6.90;;
40052;SDS011;25758;48.200;16.338;2022-10-31T02:21:27;8.82;;;6.00;;
40052;SDS011;25758;48.200;16.338;2022-10-31T02:24:05;9.95;;;7.10;;
40052;SDS011;25758;48.200;16.338;2022-10-31T02:26:51;8.85;;;6.32;;
40052;SDS011;25758;48.200;16.338;2022-10-31T02:40:25;5.63;;;4.10;;
40052;SDS011;25758;48.200;16.338;2022-10-31T02:43:06;7.43;;;5.45;;
40052;SDS011;25758;48.200;16.338;2022-10-31T02:45:45;6.10;;;4.93;;
40052;SDS011;25758;48.200;16.338;2022-10-31T02:48:38;6.00;;;4.05;;
40052;SDS011;25758;48.200;16.338;2022-10-31T02:51:07;5.05;;;3.92;;
40052;SDS011;25758;48.200;16.338;2022-10-31T02:53:34;5.55;;;4.00;;
40052;SDS011;25758;48.200;16.338;2022-10-31T02:56:02;6.57;;;4.47;;
40052;SDS011;25758;48.200;16.338;2022-10-31T02:58:33;8.25;;;4.43;;
40052;SDS011;25758;48.200;16.338;2022-10-31T03:01:10;6.07;;;4.43;;
40052;SDS011;25758;48.200;16.338;2022-10-31T03:04:16;6.95;;;3.83;;
40052;SDS011;25758;48.200;16.338;2022-10-31T03:07:00;4.38;;;3.28;;
40052;SDS011;25758;48.200;16.338;2022-10-31T03:18:31;4.00;;;3.25;;
40052;SDS011;25758;48.200;16.338;2022-10-31T03:20:31;4.15;;;3.58;;
40052;SDS011;25758;48.200;16.338;2022-10-31T03:23:02;3.95;;;2.95;;
40052;SDS011;25758;48.200;16.338;2022-10-31T03:25:31;5.10;;;3.63;;
40052;SDS011;25758;48.200;16.338;2022-10-31T03:27:58;4.82;;;3.60;;
40052;SDS011;25758;48.200;16.338;2022-10-31T03:30:26;7.72;;;5.65;;
40052;SDS011;25758;48.200;16.338;2022-10-31T03:32:53;4.90;;;3.60;;
40052;SDS011;25758;48.200;16.338;2022-10-31T03:35:20;8.65;;;6.22;;
40052;SDS011;25758;48.200;16.338;2022-10-31T03:37:49;4.68;;;3.33;;
40052;SDS011;25758;48.200;16.338;2022-10-31T03:40:19;5.18;;;3.67;;
40052;SDS011;25758;48.200;16.338;2022-10-31T03:42:50;5.38;;;3.80;;
40052;SDS011;25758;48.200;16.338;2022-10-31T03:45:21;7.47;;;3.83;;
40052;SDS011;25758;48.200;16.338;2022-10-31T03:47:49;4.68;;;3.22;;
40052;SDS011;25758;48.200;16.338;2022-10-31T03:50:16;7.22;;;2.88;;
40052;SDS011;25758;48.200;16.338;2022-10-31T03:53:00;5.20;;;3.33;;
40052;SDS011;25758;48.200;16.338;2022-10-31T03:55:30;5.13;;;2.50;;
40052;SDS011;25758;48.200;16.338;2022-10-31T03:58:02;4.40;;;2.83;;
40052;SDS011;25758;48.200;16.338;2022-10-31T04:00:32;3.22;;;2.70;;
40052;SDS011;25758;48.200;16.338;2022-10-31T04:03:07;3.17;;;2.33;;
40052;SDS011;25758;48.200;16.338;2022-10-31T04:05:36;3.78;;;2.53;;
40052;SDS011;25758;48.200;16.338;2022-10-31T04:08:04;6.13;;;2.35;;
40052;SDS011;25758;48.200;16.338;2022-10-31T04:10:34;7.43;;;2.42;;
40052;SDS011;25758;48.200;16.338;2022-10-31T04:13:12;2.97;;;2.67;;
40052;SDS011;25758;48.200;16.338;2022-10-31T04:15:41;3.40;;;2.65;;
40052;SDS011;25758;48.200;16.338;2022-10-31T04:18:08;3.08;;;2.05;;
40052;SDS011;25758;48.200;16.338;2022-10-31T04:20:35;2.63;;;1.90;;
40052;SDS011;25758;48.200;16.338;2022-10-31T04:23:02;3.08;;;2.13;;
40052;SDS011;25758;48.200;16.338;2022-10-31T04:25:29;3.45;;;2.30;;
40052;SDS011;25758;48.200;16.338;2022-10-31T04:27:54;4.28;;;2.80;;
40052;SDS011;25758;48.200;16.338;2022-10-31T04:30:20;2.58;;;1.83;;
40052;SDS011;25758;48.200;16.338;2022-10-31T04:32:46;4.10;;;2.75;;
40052;SDS011;25758;48.200;16.338;2022-10-31T04:35:12;3.75;;;2.63;;
40052;SDS011;25758;48.200;16.338;2022-10-31T04:37:37;3.15;;;2.40;;
40052;SDS011;25758;48.200;16.338;2022-10-31T04:40:03;4.32;;;2.03;;
40052;SDS011;25758;48.200;16.338;2022-10-31T04:42:30;3.50;;;2.85;;
40052;SDS011;25758;48.200;16.338;2022-10-31T04:44:56;4.10;;;2.90;;
40052;SDS011;25758;48.200;16.338;2022-10-31T04:47:21;5.13;;;3.20;;
40052;SDS011;25758;48.200;16.338;2022-10-31T04:49:47;5.30;;;3.08;;
40052;SDS011;25758;48.200;16.338;2022-10-31T04:52:13;5.15;;;3.67;;
40052;SDS011;25758;48.200;16.338;2022-10-31T04:54:39;3.10;;;2.60;;
40052;SDS011;25758;48.200;16.338;2022-10-31T04:57:05;3.53;;;2.33;;
40052;SDS011;25758;48.200;16.338;2022-10-31T04:59:30;3.35;;;2.30;;
40052;SDS011;25758;48.200;16.338;2022-10-31T05:01:56;2.30;;;1.70;;
40052;SDS011;25758;48.200;16.338;2022-10-31T05:04:22;2.70;;;2.10;;
40052;SDS011;25758;48.200;16.338;2022-10-31T05:06:47;3.13;;;2.13;;
40052;SDS011;25758;48.200;16.338;2022-10-31T05:09:13;3.38;;;2.17;;
40052;SDS011;25758;48.200;16.338;2022-10-31T05:11:39;4.55;;;2.40;;
40052;SDS011;25758;48.200;16.338;2022-10-31T05:14:04;3.78;;;2.53;;
40052;SDS011;25758;48.200;16.338;2022-10-31T05:16:30;3.42;;;2.63;;
40052;SDS011;25758;48.200;16.338;2022-10-31T05:18:56;5.00;;;1.98;;
40052;SDS011;25758;48.200;16.338;2022-10-31T05:21:21;4.68;;;2.80;;
40052;SDS011;25758;48.200;16.338;2022-10-31T05:23:47;5.20;;;2.58;;
40052;SDS011;25758;48.200;16.338;2022-10-31T05:26:13;3.75;;;2.70;;
40052;SDS011;25758;48.200;16.338;2022-10-31T05:28:38;4.10;;;3.05;;
40052;SDS011;25758;48.200;16.338;2022-10-31T05:31:04;3.80;;;2.58;;
40052;SDS011;25758;48.200;16.338;2022-10-31T05:33:29;4.93;;;2.95;;
40052;SDS011;25758;48.200;16.338;2022-10-31T05:35:55;4.00;;;3.08;;
40052;SDS011;25758;48.200;16.338;2022-10-31T05:38:21;6.63;;;4.43;;
40052;SDS011;25758;48.200;16.338;2022-10-31T05:40:46;5.15;;;3.22;;
40052;SDS011;25758;48.200;16.338;2022-10-31T05:43:12;7.32;;;4.22;;
40052;SDS011;25758;48.200;16.338;2022-10-31T05:45:38;6.63;;;3.40;;
40052;SDS011;25758;48.200;16.338;2022-10-31T05:48:04;6.53;;;3.53;;
40052;SDS011;25758;48.200;16.338;2022-10-31T05:50:30;8.32;;;4.13;;
40052;SDS011;25758;48.200;16.338;2022-10-31T05:52:57;64.03;;;24.75;;
40052;SDS011;25758;48.200;16.338;2022-10-31T05:55:27;41.05;;;16.58;;
40052;SDS011;25758;48.200;16.338;2022-10-31T05:57:54;20.20;;;8.60;;
40052;SDS011;25758;48.200;16.338;2022-10-31T06:00:20;10.07;;;5.82;;
40052;SDS011;25758;48.200;16.338;2022-10-31T06:02:46;8.35;;;4.30;;
40052;SDS011;25758;48.200;16.338;2022-10-31T06:05:13;14.38;;;4.97;;
40052;SDS011;25758;48.200;16.338;2022-10-31T06:07:38;6.40;;;3.30;;
40052;SDS011;25758;48.200;16.338;2022-10-31T06:10:05;6.28;;;3.30;;
40052;SDS011;25758;48.200;16.338;2022-10-31T06:12:31;6.55;;;4.40;;
40052;SDS011;25758;48.200;16.338;2022-10-31T06:15:02;8.60;;;4.00;;
40052;SDS011;25758;48.200;16.338;2022-10-31T06:17:33;7.38;;;4.10;;
40052;SDS011;25758;48.200;16.338;2022-10-31T06:19:59;7.15;;;5.40;;
40052;SDS011;25758;48.200;16.338;2022-10-31T06:22:25;6.95;;;4.90;;
40052;SDS011;25758;48.200;16.338;2022-10-31T06:24:51;5.70;;;4.00;;
40052;SDS011;25758;48.200;16.338;2022-10-31T06:27:16;11.73;;;6.70;;
40052;SDS011;25758;48.200;16.338;2022-10-31T06:29:42;16.85;;;9.57;;
40052;SDS011;25758;48.200;16.338;2022-10-31T06:32:10;12.07;;;5.55;;
40052;SDS011;25758;48.200;16.338;2022-10-31T06:34:37;9.52;;;4.10;;
40052;SDS011;25758;48.200;16.338;2022-10-31T06:37:02;11.15;;;4.55;;
40052;SDS011;25758;48.200;16.338;2022-10-31T06:39:28;7.80;;;4.05;;
40052;SDS011;25758;48.200;16.338;2022-10-31T06:41:54;4.93;;;3.08;;
40052;SDS011;25758;48.200;16.338;2022-10-31T06:44:19;8.57;;;3.92;;
40052;SDS011;25758;48.200;16.338;2022-10-31T06:46:48;12.48;;;4.00;;
40052;SDS011;25758;48.200;16.338;2022-10-31T06:49:14;11.80;;;3.63;;
40052;SDS011;25758;48.200;16.338;2022-10-31T06:51:39;7.25;;;4.20;;
40052;SDS011;25758;48.200;16.338;2022-10-31T06:54:05;9.55;;;5.10;;
40052;SDS011;25758;48.200;16.338;2022-10-31T06:56:30;11.15;;;4.55;;
40052;SDS011;25758;48.200;16.338;2022-10-31T06:58:56;10.40;;;4.38;;
40052;SDS011;25758;48.200;16.338;2022-10-31T07:01:22;9.23;;;4.88;;
40052;SDS011;25758;48.200;16.338;2022-10-31T07:03:47;7.35;;;4.65;;
40052;SDS011;25758;48.200;16.338;2022-10-31T07:06:13;13.65;;;3.75;;
40052;SDS011;25758;48.200;16.338;2022-10-31T07:08:39;7.13;;;4.25;;
40052;SDS011;25758;48.200;16.338;2022-10-31T07:11:04;6.57;;;3.58;;
40052;SDS011;25758;48.200;16.338;2022-10-31T07:13:30;7.20;;;4.25;;
40052;SDS011;25758;48.200;16.338;2022-10-31T07:15:59;5.85;;;3.80;;
40052;SDS011;25758;48.200;16.338;2022-10-31T07:18:27;14.82;;;5.00;;
40052;SDS011;25758;48.200;16.338;2022-10-31T07:20:53;13.32;;;5.13;;
40052;SDS011;25758;48.200;16.338;2022-10-31T07:23:19;8.93;;;4.50;;
40052;SDS011;25758;48.200;16.338;2022-10-31T07:25:44;8.80;;;4.80;;
40052;SDS011;25758;48.200;16.338;2022-10-31T07:28:10;8.38;;;4.10;;
40052;SDS011;25758;48.200;16.338;2022-10-31T07:30:36;10.27;;;4.40;;
40052;SDS011;25758;48.200;16.338;2022-10-31T07:33:02;10.90;;;3.72;;
40052;SDS011;25758;48.200;16.338;2022-10-31T07:35:29;11.88;;;5.40;;
40052;SDS011;25758;48.200;16.338;2022-10-31T07:37:56;8.52;;;4.13;;
40052;SDS011;25758;48.200;16.338;2022-10-31T07:40:22;11.77;;;4.80;;
40052;SDS011;25758;48.200;16.338;2022-10-31T07:42:50;11.07;;;4.15;;
40052;SDS011;25758;48.200;16.338;2022-10-31T07:45:18;8.07;;;4.45;;
40052;SDS011;25758;48.200;16.338;2022-10-31T07:47:45;9.10;;;4.47;;
40052;SDS011;25758;48.200;16.338;2022-10-31T07:50:14;9.27;;;5.10;;
40052;SDS011;25758;48.200;16.338;2022-10-31T07:52:41;9.30;;;4.93;;
40052;SDS011;25758;48.200;16.338;2022-10-31T07:55:07;8.75;;;5.18;;
40052;SDS011;25758;48.200;16.338;2022-10-31T07:57:33;11.90;;;5.93;;
40052;SDS011;25758;48.200;16.338;2022-10-31T07:59:59;10.02;;;5.90;;
40052;SDS011;25758;48.200;16.338;2022-10-31T08:02:24;10.07;;;6.05;;
40052;SDS011;25758;48.200;16.338;2022-10-31T08:04:50;20.52;;;8.85;;
40052;SDS011;25758;48.200;16.338;2022-10-31T08:07:16;11.38;;;5.97;;
40052;SDS011;25758;48.200;16.338;2022-10-31T08:09:42;9.82;;;5.72;;
40052;SDS011;25758;48.200;16.338;2022-10-31T08:12:08;10.65;;;6.20;;
40052;SDS011;25758;48.200;16.338;2022-10-31T08:14:33;11.35;;;6.13;;
40052;SDS011;25758;48.200;16.338;2022-10-31T08:16:59;10.95;;;6.32;;
40052;SDS011;25758;48.200;16.338;2022-10-31T08:19:25;9.85;;;5.60;;
40052;SDS011;25758;48.200;16.338;2022-10-31T08:21:50;19.10;;;5.93;;
40052;SDS011;25758;48.200;16.338;2022-10-31T08:24:17;10.75;;;5.97;;
40052;SDS011;25758;48.200;16.338;2022-10-31T08:26:43;13.25;;;6.85;;
40052;SDS011;25758;48.200;16.338;2022-10-31T08:29:09;12.45;;;6.72;;
40052;SDS011;25758;48.200;16.338;2022-10-31T08:31:34;13.43;;;6.93;;
40052;SDS011;25758;48.200;16.338;2022-10-31T08:34:01;14.73;;;7.57;;
40052;SDS011;25758;48.200;16.338;2022-10-31T08:36:27;14.23;;;8.00;;
40052;SDS011;25758;48.200;16.338;2022-10-31T08:38:53;13.68;;;8.77;;
40052;SDS011;25758;48.200;16.338;2022-10-31T08:41:19;15.52;;;7.72;;
40052;SDS011;25758;48.200;16.338;2022-10-31T08:43:45;16.95;;;8.57;;
40052;SDS011;25758;48.200;16.338;2022-10-31T08:46:11;19.65;;;9.40;;
40052;SDS011;25758;48.200;16.338;2022-10-31T08:48:37;17.88;;;8.52;;
40052;SDS011;25758;48.200;16.338;2022-10-31T08:51:03;16.23;;;8.60;;
40052;SDS011;25758;48.200;16.338;2022-10-31T08:53:29;16.35;;;8.55;;
40052;SDS011;25758;48.200;16.338;2022-10-31T08:55:55;16.15;;;8.73;;
40052;SDS011;25758;48.200;16.338;2022-10-31T08:58:21;20.73;;;10.57;;
40052;SDS011;25758;48.200;16.338;2022-10-31T09:00:49;26.25;;;10.18;;
40052;SDS011;25758;48.200;16.338;2022-10-31T09:03:17;19.23;;;10.65;;
40052;SDS011;25758;48.200;16.338;2022-10-31T09:05:57;22.10;;;11.85;;
40052;SDS011;25758;48.200;16.338;2022-10-31T09:08:24;22.38;;;12.05;;
40052;SDS011;25758;48.200;16.338;2022-10-31T09:10:50;26.35;;;12.68;;
40052;SDS011;25758;48.200;16.338;2022-10-31T09:13:19;26.27;;;11.90;;
40052;SDS011;25758;48.200;16.338;2022-10-31T09:15:46;21.98;;;11.15;;
40052;SDS011;25758;48.200;16.338;2022-10-31T09:18:14;20.85;;;11.00;;
40052;SDS011;25758;48.200;16.338;2022-10-31T09:20:42;18.90;;;11.13;;
40052;SDS011;25758;48.200;16.338;2022-10-31T09:23:10;17.75;;;10.70;;
40052;SDS011;25758;48.200;16.338;2022-10-31T09:25:44;21.23;;;12.05;;
40052;SDS011;25758;48.200;16.338;2022-10-31T09:28:11;21.58;;;11.63;;
40052;SDS011;25758;48.200;16.338;2022-10-31T09:30:39;21.25;;;11.95;;
40052;SDS011;25758;48.200;16.338;2022-10-31T09:33:14;21.38;;;12.10;;
40052;SDS011;25758;48.200;16.338;2022-10-31T09:35:40;21.30;;;12.27;;
40052;SDS011;25758;48.200;16.338;2022-10-31T09:38:08;18.70;;;11.63;;
40052;SDS011;25758;48.200;16.338;2022-10-31T09:40:37;15.90;;;10.65;;
40052;SDS011;25758;48.200;16.338;2022-10-31T09:46:01;22.38;;;11.55;;
40052;SDS011;25758;48.200;16.338;2022-10-31T09:51:34;18.33;;;10.65;;
40052;SDS011;25758;48.200;16.338;2022-10-31T09:56:48;18.40;;;11.23;;
40052;SDS011;25758;48.200;16.338;2022-10-31T09:59:24;22.92;;;10.93;;
40052;SDS011;25758;48.200;16.338;2022-10-31T10:01:58;22.42;;;12.48;;
40052;SDS011;25758;48.200;16.338;2022-10-31T10:04:45;21.63;;;12.10;;
40052;SDS011;25758;48.200;16.338;2022-10-31T10:07:16;19.65;;;11.55;;
40052;SDS011;25758;48.200;16.338;2022-10-31T10:09:42;19.63;;;12.10;;
40052;SDS011;25758;48.200;16.338;2022-10-31T10:12:18;25.92;;;12.95;;
40052;SDS011;25758;48.200;16.338;2022-10-31T10:23:35;26.60;;;12.52;;
40052;SDS011;25758;48.200;16.338;2022-10-31T10:29:14;24.75;;;11.95;;
40052;SDS011;25758;48.200;16.338;2022-10-31T10:31:36;20.38;;;12.82;;
40052;SDS011;25758;48.200;16.338;2022-10-31T10:36:47;27.40;;;14.48;;
40052;SDS011;25758;48.200;16.338;2022-10-31T10:41:46;27.48;;;15.85;;
40052;SDS011;25758;48.200;16.338;2022-10-31T10:44:32;27.50;;;15.70;;
40052;SDS011;25758;48.200;16.338;2022-10-31T10:47:16;27.27;;;15.68;;
40052;SDS011;25758;48.200;16.338;2022-10-31T10:50:01;31.20;;;15.95;;
40052;SDS011;25758;48.200;16.338;2022-10-31T10:52:36;26.95;;;15.32;;
40052;SDS011;25758;48.200;16.338;2022-10-31T10:55:10;26.73;;;14.65;;
40052;SDS011;25758;48.200;16.338;2022-10-31T10:58:01;27.63;;;15.82;;
40052;SDS011;25758;48.200;16.338;2022-10-31T11:00:30;31.10;;;17.80;;
40052;SDS011;25758;48.200;16.338;2022-10-31T11:03:01;27.10;;;16.52;;
40052;SDS011;25758;48.200;16.338;2022-10-31T11:07:56;26.10;;;15.30;;
40052;SDS011;25758;48.200;16.338;2022-10-31T11:10:21;27.67;;;16.80;;
40052;SDS011;25758;48.200;16.338;2022-10-31T11:13:17;24.90;;;15.73;;
40052;SDS011;25758;48.200;16.338;2022-10-31T11:15:53;30.52;;;16.20;;
40052;SDS011;25758;48.200;16.338;2022-10-31T11:18:23;25.08;;;13.85;;
40052;SDS011;25758;48.200;16.338;2022-10-31T11:20:52;27.80;;;14.75;;
40052;SDS011;25758;48.200;16.338;2022-10-31T11:23:19;32.55;;;15.82;;
40052;SDS011;25758;48.200;16.338;2022-10-31T11:26:05;30.48;;;15.73;;
40052;SDS011;25758;48.200;16.338;2022-10-31T11:28:43;30.50;;;16.50;;
40052;SDS011;25758;48.200;16.338;2022-10-31T11:31:11;32.25;;;16.45;;
40052;SDS011;25758;48.200;16.338;2022-10-31T11:36:15;28.23;;;17.48;;
40052;SDS011;25758;48.200;16.338;2022-10-31T11:38:41;32.58;;;18.20;;
40052;SDS011;25758;48.200;16.338;2022-10-31T11:41:15;28.02;;;17.23;;
40052;SDS011;25758;48.200;16.338;2022-10-31T11:43:51;28.67;;;17.13;;
40052;SDS011;25758;48.200;16.338;2022-10-31T11:46:45;29.63;;;17.92;;
40052;SDS011;25758;48.200;16.338;2022-10-31T11:49:18;33.97;;;19.13;;
40052;SDS011;25758;48.200;16.338;2022-10-31T11:51:47;32.40;;;18.45;;
40052;SDS011;25758;48.200;16.338;2022-10-31T11:54:22;34.00;;;17.77;;
40052;SDS011;25758;48.200;16.338;2022-10-31T11:56:52;31.27;;;19.42;;
40052;SDS011;25758;48.200;16.338;2022-10-31T11:59:38;35.05;;;19.55;;
40052;SDS011;25758;48.200;16.338;2022-10-31T12:02:14;36.53;;;21.92;;
40052;SDS011;25758;48.200;16.338;2022-10-31T12:04:44;36.92;;;20.00;;
40052;SDS011;25758;48.200;16.338;2022-10-31T12:07:13;38.05;;;20.85;;
40052;SDS011;25758;48.200;16.338;2022-10-31T12:09:39;33.83;;;21.23;;
40052;SDS011;25758;48.200;16.338;2022-10-31T12:21:08;48.03;;;23.73;;
40052;SDS011;25758;48.200;16.338;2022-10-31T12:26:23;54.30;;;28.10;;
40052;SDS011;25758;48.200;16.338;2022-10-31T12:34:20;53.10;;;28.70;;
40052;SDS011;25758;48.200;16.338;2022-10-31T12:39:44;59.33;;;30.00;;
40052;SDS011;25758;48.200;16.338;2022-10-31T12:58:47;57.50;;;30.90;;
40052;SDS011;25758;48.200;16.338;2022-10-31T13:01:24;62.63;;;32.17;;
40052;SDS011;25758;48.200;16.338;2022-10-31T13:06:50;59.85;;;31.08;;
40052;SDS011;25758;48.200;16.338;2022-10-31T13:11:56;61.13;;;31.60;;
40052;SDS011;25758;48.200;16.338;2022-10-31T13:14:36;59.63;;;31.17;;
40052;SDS011;25758;48.200;16.338;2022-10-31T13:17:06;62.28;;;30.63;;
40052;SDS011;25758;48.200;16.338;2022-10-31T13:19:42;57.65;;;30.60;;
40052;SDS011;25758;48.200;16.338;2022-10-31T13:22:12;55.95;;;29.88;;
40052;SDS011;25758;48.200;16.338;2022-10-31T13:27:25;61.22;;;30.90;;
40052;SDS011;25758;48.200;16.338;2022-10-31T13:30:06;62.10;;;31.60;;
40052;SDS011;25758;48.200;16.338;2022-10-31T13:32:50;60.13;;;32.10;;
40052;SDS011;25758;48.200;16.338;2022-10-31T13:35:21;63.13;;;32.42;;
40052;SDS011;25758;48.200;16.338;2022-10-31T13:44:13;65.63;;;31.75;;
40052;SDS011;25758;48.200;16.338;2022-10-31T13:46:22;72.03;;;35.33;;
40052;SDS011;25758;48.200;16.338;2022-10-31T13:48:59;69.22;;;33.10;;
40052;SDS011;25758;48.200;16.338;2022-10-31T13:51:26;70.20;;;34.28;;
40052;SDS011;25758;48.200;16.338;2022-10-31T13:54:01;73.70;;;32.88;;
40052;SDS011;25758;48.200;16.338;2022-10-31T13:56:43;62.17;;;31.42;;
40052;SDS011;25758;48.200;16.338;2022-10-31T13:59:16;66.63;;;32.85;;
40052;SDS011;25758;48.200;16.338;2022-10-31T14:01:50;75.65;;;34.58;;
40052;SDS011;25758;48.200;16.338;2022-10-31T14:04:23;73.78;;;33.95;;
40052;SDS011;25758;48.200;16.338;2022-10-31T14:07:10;72.70;;;33.95;;
40052;SDS011;25758;48.200;16.338;2022-10-31T14:09:52;79.03;;;36.38;;
40052;SDS011;25758;48.200;16.338;2022-10-31T14:12:37;79.55;;;36.45;;
40052;SDS011;25758;48.200;16.338;2022-10-31T14:15:16;68.63;;;34.05;;
40052;SDS011;25758;48.200;16.338;2022-10-31T14:17:57;69.80;;;34.60;;
40052;SDS011;25758;48.200;16.338;2022-10-31T14:28:53;75.63;;;35.50;;
40052;SDS011;25758;48.200;16.338;2022-10-31T14:33:54;68.68;;;32.67;;
40052;SDS011;25758;48.200;16.338;2022-10-31T14:39:15;67.05;;;31.77;;
40052;SDS011;25758;48.200;16.338;2022-10-31T14:44:38;64.65;;;31.40;;
40052;SDS011;25758;48.200;16.338;2022-10-31T14:52:31;69.43;;;34.42;;
40052;SDS011;25758;48.200;16.338;2022-10-31T14:55:00;81.93;;;37.28;;
40052;SDS011;25758;48.200;16.338;2022-10-31T14:57:30;72.75;;;35.85;;
40052;SDS011;25758;48.200;16.338;2022-10-31T15:00:06;74.10;;;36.30;;
40052;SDS011;25758;48.200;16.338;2022-10-31T15:02:50;78.18;;;37.25;;
40052;SDS011;25758;48.200;16.338;2022-10-31T15:05:41;78.95;;;34.83;;
40052;SDS011;25758;48.200;16.338;2022-10-31T15:10:58;78.95;;;37.53;;
40052;SDS011;25758;48.200;16.338;2022-10-31T15:13:28;75.53;;;36.88;;
40052;SDS011;25758;48.200;16.338;2022-10-31T15:15:54;72.22;;;34.58;;
40052;SDS011;25758;48.200;16.338;2022-10-31T15:18:22;69.65;;;35.55;;
40052;SDS011;25758;48.200;16.338;2022-10-31T15:20:50;75.13;;;36.33;;
40052;SDS011;25758;48.200;16.338;2022-10-31T15:23:29;73.55;;;36.42;;
40052;SDS011;25758;48.200;16.338;2022-10-31T15:26:00;69.90;;;32.97;;
40052;SDS011;25758;48.200;16.338;2022-10-31T15:28:27;70.88;;;35.45;;
40052;SDS011;25758;48.200;16.338;2022-10-31T15:31:02;68.50;;;35.05;;
40052;SDS011;25758;48.200;16.338;2022-10-31T15:33:29;69.85;;;33.30;;
40052;SDS011;25758;48.200;16.338;2022-10-31T15:35:57;72.65;;;34.75;;
40052;SDS011;25758;48.200;16.338;2022-10-31T15:38:27;70.55;;;35.05;;
40052;SDS011;25758;48.200;16.338;2022-10-31T15:41:04;64.32;;;34.22;;
40052;SDS011;25758;48.200;16.338;2022-10-31T15:43:46;68.47;;;34.88;;
40052;SDS011;25758;48.200;16.338;2022-10-31T15:46:13;69.70;;;34.13;;
40052;SDS011;25758;48.200;16.338;2022-10-31T15:48:38;71.28;;;34.55;;
40052;SDS011;25758;48.200;16.338;2022-10-31T15:51:09;69.95;;;34.35;;
40052;SDS011;25758;48.200;16.338;2022-10-31T15:53:36;70.93;;;34.65;;
40052;SDS011;25758;48.200;16.338;2022-10-31T15:56:20;73.45;;;33.10;;
40052;SDS011;25758;48.200;16.338;2022-10-31T15:58:48;70.00;;;33.05;;
40052;SDS011;25758;48.200;16.338;2022-10-31T16:03:56;68.63;;;33.35;;
40052;SDS011;25758;48.200;16.338;2022-10-31T16:06:35;66.13;;;32.38;;
40052;SDS011;25758;48.200;16.338;2022-10-31T16:09:00;65.95;;;32.67;;
40052;SDS011;25758;48.200;16.338;2022-10-31T16:11:32;64.95;;;33.47;;
40052;SDS011;25758;48.200;16.338;2022-10-31T16:14:07;64.88;;;33.60;;
40052;SDS011;25758;48.200;16.338;2022-10-31T16:16:50;69.47;;;34.42;;
40052;SDS011;25758;48.200;16.338;2022-10-31T16:19:20;58.58;;;30.65;;
40052;SDS011;25758;48.200;16.338;2022-10-31T16:21:49;61.10;;;33.40;;
40052;SDS011;25758;48.200;16.338;2022-10-31T16:24:59;57.45;;;30.25;;
40052;SDS011;25758;48.200;16.338;2022-10-31T16:27:39;59.95;;;28.75;;
40052;SDS011;25758;48.200;16.338;2022-10-31T16:33:02;52.50;;;25.77;;
40052;SDS011;25758;48.200;16.338;2022-10-31T16:35:32;53.20;;;27.25;;
40052;SDS011;25758;48.200;16.338;2022-10-31T16:37:57;45.33;;;25.48;;
40052;SDS011;25758;48.200;16.338;2022-10-31T16:40:23;45.33;;;23.13;;
40052;SDS011;25758;48.200;16.338;2022-10-31T16:42:49;51.45;;;25.33;;
40052;SDS011;25758;48.200;16.338;2022-10-31T16:45:19;49.83;;;24.70;;
40052;SDS011;25758;48.200;16.338;2022-10-31T16:47:47;41.53;;;23.08;;